This is the latest recevied weather packets stored in our database for station/object YO4TNV-15. If no packets are shown the sender has not sent any weather packets the latest 10 day(s).
| Time | Temp. | Humidity | Pressure | Rain* | Wind** | Luminosity | Snow |
|---|---|---|---|---|---|---|---|
| 1777639939 | 16.67° C | 25% | 1010.2 hPa | - | - | - | - |
| 1777639930 | 16.67° C | 25% | 1010.2 hPa | - | - | - | - |
| 1777639039 | 16.11° C | 25% | 1010.5 hPa | - | - | - | - |
| 1777639030 | 16.11° C | 25% | 1010.5 hPa | - | - | - | - |
| 1777638130 | 15° C | 27% | 1010.7 hPa | - | - | - | - |
| 1777637238 | 15.56° C | 25% | 1010.9 hPa | - | - | - | - |
| 1777637230 | 15.56° C | 25% | 1010.9 hPa | - | - | - | - |
| 1777636346 | 15.56° C | 27% | 1011 hPa | - | - | - | - |
| 1777636329 | 15.56° C | 27% | 1011 hPa | - | - | - | - |
| 1777635438 | 15° C | 25% | 1011.1 hPa | - | - | - | - |
| 1777635429 | 15° C | 25% | 1011.1 hPa | - | - | - | - |
| 1777634539 | 16.11° C | 23% | 1011.2 hPa | - | - | - | - |
| 1777634529 | 16.11° C | 23% | 1011.2 hPa | - | - | - | - |
| 1777633637 | 15° C | 26% | 1011.2 hPa | - | - | - | - |
| 1777633629 | 15° C | 26% | 1011.2 hPa | - | - | - | - |
| 1777632737 | 15.56° C | 24% | 1011.3 hPa | - | - | - | - |
| 1777632729 | 15.56° C | 24% | 1011.3 hPa | - | - | - | - |
| 1777631837 | 15° C | 24% | 1011.5 hPa | - | - | - | - |
| 1777631829 | 15° C | 24% | 1011.5 hPa | - | - | - | - |
| 1777630936 | 14.44° C | 26% | 1011.6 hPa | - | - | - | - |
| 1777630928 | 14.44° C | 26% | 1011.6 hPa | - | - | - | - |
| 1777630037 | 14.44° C | 25% | 1011.6 hPa | - | - | - | - |
| 1777630028 | 14.44° C | 25% | 1011.6 hPa | - | - | - | - |
| 1777629136 | 14.44° C | 26% | 1011.8 hPa | - | - | - | - |
| 1777629128 | 14.44° C | 26% | 1011.8 hPa | - | - | - | - |
* Rain since midnight (hover to see other rain measurements)
** Current wind speed in m/s (hover to see current wind gust speed)